createdAt,value
2023-01-05T00:00:23.150Z,1003.87
2023-01-05T00:01:23.073Z,1003.86
2023-01-05T00:02:24.634Z,1004.00
2023-01-05T00:03:23.084Z,1003.97
2023-01-05T00:04:23.251Z,1003.92
2023-01-05T00:05:23.093Z,1003.82
2023-01-05T00:06:23.088Z,1003.80
2023-01-05T00:07:23.104Z,1003.79
2023-01-05T00:08:23.106Z,1003.82
2023-01-05T00:09:23.111Z,1003.83
2023-01-05T00:10:23.108Z,1003.84
2023-01-05T00:11:23.137Z,1003.89
2023-01-05T00:12:23.123Z,1003.90
2023-01-05T00:13:23.134Z,1003.91
2023-01-05T00:14:23.136Z,1003.90
2023-01-05T00:15:23.144Z,1003.86
2023-01-05T00:16:23.185Z,1003.92
2023-01-05T00:17:23.139Z,1003.89
2023-01-05T00:18:23.144Z,1003.88
2023-01-05T00:19:23.156Z,1003.93
2023-01-05T00:20:23.155Z,1003.92
2023-01-05T00:21:23.168Z,1003.89
2023-01-05T00:22:23.170Z,1003.94
2023-01-05T00:23:23.176Z,1003.87
2023-01-05T00:24:23.170Z,1004.00
2023-01-05T00:25:23.184Z,1003.99
2023-01-05T00:26:23.189Z,1003.98
2023-01-05T00:27:23.241Z,1003.97
2023-01-05T00:28:23.188Z,1003.87
2023-01-05T00:29:23.205Z,1004.01
2023-01-05T00:30:23.207Z,1003.93
2023-01-05T00:31:23.250Z,1004.02
2023-01-05T00:32:23.208Z,1004.00
2023-01-05T00:33:23.221Z,1003.99
2023-01-05T00:34:23.224Z,1003.98
2023-01-05T00:35:23.227Z,1003.92
2023-01-05T00:36:23.232Z,1004.04
2023-01-05T00:37:23.238Z,1003.97
2023-01-05T00:38:23.250Z,1003.98
2023-01-05T00:39:23.247Z,1003.94
2023-01-05T00:40:23.248Z,1003.98
2023-01-05T00:41:23.250Z,1004.01
2023-01-05T00:42:23.254Z,1003.95
2023-01-05T00:43:23.278Z,1003.95
2023-01-05T00:44:23.264Z,1003.98
2023-01-05T00:45:23.267Z,1004.00
2023-01-05T00:46:23.352Z,1003.98
2023-01-05T00:47:23.278Z,1003.92
2023-01-05T00:48:23.290Z,1003.84
2023-01-05T00:49:23.287Z,1004.01
2023-01-05T00:50:23.300Z,1004.03
2023-01-05T00:51:23.303Z,1004.06
2023-01-05T00:52:23.300Z,1004.03
2023-01-05T00:53:23.307Z,1004.06
2023-01-05T00:54:23.310Z,1004.08
2023-01-05T00:55:23.313Z,1004.06
2023-01-05T00:56:23.325Z,1004.05
2023-01-05T00:57:23.333Z,1003.95
2023-01-05T00:58:23.330Z,1004.02
2023-01-05T00:59:23.367Z,1004.01
2023-01-05T01:00:23.346Z,1003.86
2023-01-05T01:01:23.493Z,1003.98
2023-01-05T01:02:23.598Z,1003.84
2023-01-05T01:03:23.397Z,1003.94
2023-01-05T01:04:23.360Z,1003.92
2023-01-05T01:05:23.369Z,1003.97
2023-01-05T01:06:23.371Z,1003.98
2023-01-05T01:07:23.375Z,1004.11
2023-01-05T01:08:23.383Z,1004.02
2023-01-05T01:09:23.406Z,1004.07
2023-01-05T01:10:23.389Z,1004.07
2023-01-05T01:11:23.414Z,1004.03
2023-01-05T01:12:23.400Z,1003.97
2023-01-05T01:13:23.403Z,1004.13
2023-01-05T01:14:23.417Z,1003.96
2023-01-05T01:15:23.426Z,1003.96
2023-01-05T01:16:23.465Z,1003.96
2023-01-05T01:17:23.415Z,1003.98
2023-01-05T01:18:23.436Z,1004.01
2023-01-05T01:19:23.424Z,1004.02
2023-01-05T01:20:23.437Z,1004.01
2023-01-05T01:21:23.448Z,1004.04
2023-01-05T01:22:23.449Z,1004.04
2023-01-05T01:23:23.447Z,1003.95
2023-01-05T01:24:23.462Z,1003.95
2023-01-05T01:25:23.448Z,1004.04
2023-01-05T01:26:23.463Z,1004.02
2023-01-05T01:27:23.459Z,1004.06
2023-01-05T01:28:23.471Z,1003.97
2023-01-05T01:29:23.493Z,1004.02
2023-01-05T01:30:23.540Z,1004.01
2023-01-05T01:31:23.497Z,1004.01
2023-01-05T01:32:23.496Z,1004.07
2023-01-05T01:33:23.492Z,1004.08
2023-01-05T01:34:23.499Z,1004.01
2023-01-05T01:35:23.494Z,1004.05
2023-01-05T01:36:23.510Z,1004.04
2023-01-05T01:37:23.512Z,1004.12
2023-01-05T01:38:23.519Z,1004.09
2023-01-05T01:39:23.523Z,1004.15
2023-01-05T01:40:23.529Z,1004.05
2023-01-05T01:41:23.524Z,1004.17
2023-01-05T01:42:23.534Z,1004.08
2023-01-05T01:43:23.531Z,1004.08
2023-01-05T01:44:23.535Z,1004.10
2023-01-05T01:45:23.541Z,1004.03
2023-01-05T01:46:23.572Z,1004.04
2023-01-05T01:47:23.585Z,1004.12
2023-01-05T01:48:23.553Z,1004.04
2023-01-05T01:49:23.599Z,1004.18
2023-01-05T01:50:23.573Z,1004.20
2023-01-05T01:51:23.565Z,1004.15
2023-01-05T01:52:23.600Z,1004.20
2023-01-05T01:53:23.588Z,1004.15
2023-01-05T01:54:23.587Z,1004.07
2023-01-05T01:55:23.586Z,1004.17
2023-01-05T01:56:23.587Z,1004.14
2023-01-05T01:57:23.597Z,1004.14
2023-01-05T01:58:23.604Z,1004.16
2023-01-05T01:59:23.607Z,1004.09
2023-01-05T02:00:23.605Z,1004.18
2023-01-05T02:01:23.795Z,1004.15
2023-01-05T02:02:23.736Z,1004.11
2023-01-05T02:03:23.644Z,1004.20
2023-01-05T02:04:23.674Z,1004.14
2023-01-05T02:05:23.626Z,1004.19
2023-01-05T02:06:23.650Z,1004.13
2023-01-05T02:07:23.643Z,1004.12
2023-01-05T02:08:23.652Z,1004.09
2023-01-05T02:09:23.652Z,1004.10
2023-01-05T02:10:23.657Z,1004.10
2023-01-05T02:11:23.653Z,1004.16
2023-01-05T02:12:23.665Z,1004.11
2023-01-05T02:13:29.506Z,1004.13
2023-01-05T02:14:23.675Z,1004.12
2023-01-05T02:15:23.682Z,1004.24
2023-01-05T02:16:23.751Z,1004.12
2023-01-05T02:17:23.687Z,1004.21
2023-01-05T02:18:23.684Z,1004.20
2023-01-05T02:19:23.721Z,1004.16
2023-01-05T02:20:23.693Z,1004.19
2023-01-05T02:21:23.699Z,1004.20
2023-01-05T02:22:23.715Z,1004.12
2023-01-05T02:23:23.739Z,1004.13
2023-01-05T02:24:23.726Z,1004.14
2023-01-05T02:25:23.729Z,1004.15
2023-01-05T02:26:23.719Z,1004.08
2023-01-05T02:27:23.732Z,1004.19
2023-01-05T02:28:23.736Z,1004.14
2023-01-05T02:29:23.747Z,1004.14
2023-01-05T02:30:23.745Z,1004.22
2023-01-05T02:31:23.770Z,1004.19
2023-01-05T02:32:23.755Z,1004.31
2023-01-05T02:33:23.751Z,1004.22
2023-01-05T02:34:23.965Z,1004.12
2023-01-05T02:35:23.889Z,1004.17
2023-01-05T02:36:28.518Z,1004.01
2023-01-05T02:37:23.774Z,1004.02
2023-01-05T02:38:23.778Z,1004.04
2023-01-05T02:39:23.777Z,1003.99
2023-01-05T02:40:23.790Z,1003.98
2023-01-05T02:41:23.792Z,1004.03
2023-01-05T02:42:23.797Z,1004.00
2023-01-05T02:43:23.797Z,1003.96
2023-01-05T02:44:23.801Z,1003.99
2023-01-05T02:45:23.804Z,1003.98
2023-01-05T02:46:23.903Z,1003.98
2023-01-05T02:47:23.823Z,1004.03
2023-01-05T02:48:23.819Z,1004.03
2023-01-05T02:49:23.830Z,1004.09
2023-01-05T02:50:23.828Z,1004.07
2023-01-05T02:51:23.853Z,1004.11
2023-01-05T02:52:23.845Z,1004.06
2023-01-05T02:53:23.849Z,1004.05
2023-01-05T02:54:23.849Z,1004.09
2023-01-05T02:55:23.862Z,1004.07
2023-01-05T02:56:23.864Z,1004.04
2023-01-05T02:57:23.859Z,1004.07
2023-01-05T02:58:23.865Z,1004.07
2023-01-05T02:59:23.877Z,1004.07
2023-01-05T03:00:23.875Z,1003.99
2023-01-05T03:01:23.968Z,1003.99
2023-01-05T03:02:24.083Z,1004.07
2023-01-05T03:03:23.936Z,1004.07
2023-01-05T03:04:23.888Z,1004.02
2023-01-05T03:05:23.906Z,1003.98
2023-01-05T03:06:23.900Z,1003.97
2023-01-05T03:07:23.937Z,1004.00
2023-01-05T03:08:29.281Z,1004.01
2023-01-05T03:09:23.924Z,1003.99
2023-01-05T03:10:23.926Z,1004.00
2023-01-05T03:11:23.932Z,1004.02
2023-01-05T03:12:23.927Z,1004.05
2023-01-05T03:13:23.936Z,1003.93
2023-01-05T03:14:23.939Z,1004.12
2023-01-05T03:15:23.975Z,1004.02
2023-01-05T03:16:23.988Z,1004.10
2023-01-05T03:17:23.952Z,1004.06
2023-01-05T03:18:23.955Z,1004.08
2023-01-05T03:19:23.960Z,1004.01
2023-01-05T03:20:23.974Z,1004.06
2023-01-05T03:21:23.972Z,1004.09
2023-01-05T03:22:24.007Z,1004.06
2023-01-05T03:23:24.010Z,1004.02
2023-01-05T03:24:23.993Z,1004.03
2023-01-05T03:25:23.985Z,1004.16
2023-01-05T03:26:24.000Z,1004.03
2023-01-05T03:27:24.004Z,1004.03
2023-01-05T03:28:24.022Z,1004.05
2023-01-05T03:29:24.006Z,1004.26
2023-01-05T03:30:24.016Z,1004.06
2023-01-05T03:31:24.100Z,1004.13
2023-01-05T03:32:24.027Z,1004.14
2023-01-05T03:33:24.022Z,1004.17
2023-01-05T03:34:24.039Z,1004.08
2023-01-05T03:35:24.066Z,1004.17
2023-01-05T03:36:24.041Z,1003.99
2023-01-05T03:37:24.051Z,1004.06
2023-01-05T03:38:24.053Z,1004.13
2023-01-05T03:39:24.078Z,1004.12
2023-01-05T03:40:24.066Z,1004.04
2023-01-05T03:41:24.086Z,1004.06
2023-01-05T03:42:24.072Z,1004.17
2023-01-05T03:43:24.072Z,1004.06
2023-01-05T03:44:24.071Z,1004.00
2023-01-05T03:45:24.083Z,1004.13
2023-01-05T03:46:24.108Z,1004.01
2023-01-05T03:47:24.090Z,1004.06
2023-01-05T03:48:24.098Z,1004.11
2023-01-05T03:49:24.113Z,1004.02
2023-01-05T03:50:24.110Z,1004.26
2023-01-05T03:51:24.112Z,1004.13
2023-01-05T03:52:24.114Z,1004.14
2023-01-05T03:53:24.115Z,1004.16
2023-01-05T03:54:24.119Z,1004.18
2023-01-05T03:55:24.283Z,1004.16
2023-01-05T03:56:24.137Z,1004.08
2023-01-05T03:57:24.139Z,1004.10
2023-01-05T03:58:24.145Z,1004.14
2023-01-05T03:59:24.150Z,1004.09
2023-01-05T04:00:24.154Z,1004.13
2023-01-05T04:01:24.255Z,1004.07
2023-01-05T04:02:24.337Z,1004.03
2023-01-05T04:03:29.577Z,1004.13
2023-01-05T04:04:24.172Z,1004.20
2023-01-05T04:05:24.170Z,1004.07
2023-01-05T04:06:24.174Z,1004.16
2023-01-05T04:07:24.178Z,1004.15
2023-01-05T04:08:24.195Z,1004.21
2023-01-05T04:09:24.193Z,1004.20
2023-01-05T04:10:24.200Z,1004.26
2023-01-05T04:11:24.220Z,1004.19
2023-01-05T04:12:24.211Z,1004.12
2023-01-05T04:13:24.214Z,1004.26
2023-01-05T04:14:24.224Z,1004.23
2023-01-05T04:15:24.247Z,1004.29
2023-01-05T04:16:24.283Z,1004.29
2023-01-05T04:17:24.226Z,1004.20
2023-01-05T04:18:24.234Z,1004.33
2023-01-05T04:19:24.238Z,1004.35
2023-01-05T04:20:24.253Z,1004.24
2023-01-05T04:21:24.248Z,1004.39
2023-01-05T04:22:27.400Z,1004.32
2023-01-05T04:23:24.258Z,1004.33
2023-01-05T04:24:24.259Z,1004.36
2023-01-05T04:25:24.277Z,1004.31
2023-01-05T04:26:24.268Z,1004.32
2023-01-05T04:27:24.295Z,1004.33
2023-01-05T04:28:24.281Z,1004.40
2023-01-05T04:29:24.281Z,1004.34
2023-01-05T04:30:24.290Z,1004.33
2023-01-05T04:31:24.357Z,1004.32
2023-01-05T04:32:24.305Z,1004.33
2023-01-05T04:33:24.309Z,1004.33
2023-01-05T04:34:24.301Z,1004.35
2023-01-05T04:35:24.312Z,1004.34
2023-01-05T04:36:24.317Z,1004.33
2023-01-05T04:37:24.324Z,1004.35
2023-01-05T04:38:24.324Z,1004.37
2023-01-05T04:39:24.358Z,1004.38
2023-01-05T04:40:24.334Z,1004.23
2023-01-05T04:41:24.344Z,1004.25
2023-01-05T04:42:24.343Z,1004.31
2023-01-05T04:43:24.385Z,1004.32
2023-01-05T04:44:24.352Z,1004.20
2023-01-05T04:45:24.349Z,1004.19
2023-01-05T04:46:24.433Z,1004.34
2023-01-05T04:47:24.369Z,1004.21
2023-01-05T04:48:24.365Z,1004.14
2023-01-05T04:49:24.377Z,1004.20
2023-01-05T04:50:24.380Z,1004.24
2023-01-05T04:51:24.375Z,1004.11
2023-01-05T04:52:24.391Z,1004.24
2023-01-05T04:53:24.388Z,1004.31
2023-01-05T04:54:24.397Z,1004.29
2023-01-05T04:55:24.397Z,1004.35
2023-01-05T04:56:24.416Z,1004.34
2023-01-05T04:57:24.404Z,1004.32
2023-01-05T04:58:24.418Z,1004.35
2023-01-05T04:59:24.442Z,1004.47
2023-01-05T05:00:24.426Z,1004.54
2023-01-05T05:01:24.499Z,1004.54
2023-01-05T05:02:24.560Z,1004.47
2023-01-05T05:03:26.876Z,1004.53
2023-01-05T05:04:24.448Z,1004.57
2023-01-05T05:05:24.441Z,1004.46
2023-01-05T05:06:24.459Z,1004.53
2023-01-05T05:07:24.457Z,1004.53
2023-01-05T05:08:24.458Z,1004.51
2023-01-05T05:09:24.470Z,1004.38
2023-01-05T05:10:24.469Z,1004.57
2023-01-05T05:11:24.467Z,1004.49
2023-01-05T05:12:24.482Z,1004.55
2023-01-05T05:13:24.483Z,1004.48
2023-01-05T05:14:24.479Z,1004.64
2023-01-05T05:15:24.517Z,1004.54
2023-01-05T05:16:24.551Z,1004.57
2023-01-05T05:17:24.497Z,1004.56
2023-01-05T05:18:24.518Z,1004.66
2023-01-05T05:19:24.513Z,1004.66
2023-01-05T05:20:24.512Z,1004.72
2023-01-05T05:21:24.519Z,1004.66
2023-01-05T05:22:24.551Z,1004.57
2023-01-05T05:23:24.529Z,1004.56
2023-01-05T05:24:24.528Z,1004.53
2023-01-05T05:25:24.528Z,1004.54
2023-01-05T05:26:24.534Z,1004.61
2023-01-05T05:27:24.535Z,1004.58
2023-01-05T05:28:24.544Z,1004.61
2023-01-05T05:29:24.546Z,1004.65
2023-01-05T05:30:24.570Z,1004.57
2023-01-05T05:31:24.580Z,1004.71
2023-01-05T05:32:24.575Z,1004.69
2023-01-05T05:33:24.567Z,1004.58
2023-01-05T05:34:24.568Z,1004.64
2023-01-05T05:35:24.578Z,1004.75
2023-01-05T05:36:24.579Z,1004.68
2023-01-05T05:37:24.586Z,1004.66
2023-01-05T05:38:24.597Z,1004.74
2023-01-05T05:39:24.599Z,1004.80
2023-01-05T05:40:24.597Z,1004.87
2023-01-05T05:41:24.607Z,1004.79
2023-01-05T05:42:24.600Z,1004.72
2023-01-05T05:43:24.620Z,1004.74
2023-01-05T05:44:24.619Z,1004.76
2023-01-05T05:45:24.628Z,1004.71
2023-01-05T05:46:24.643Z,1004.72
2023-01-05T05:47:24.645Z,1004.75
2023-01-05T05:48:24.627Z,1004.77
2023-01-05T05:49:24.640Z,1004.73
2023-01-05T05:50:24.651Z,1004.77
2023-01-05T05:51:24.644Z,1004.78
2023-01-05T05:52:24.645Z,1004.82
2023-01-05T05:53:24.661Z,1004.81
2023-01-05T05:54:24.662Z,1004.91
2023-01-05T05:55:24.716Z,1004.84
2023-01-05T05:56:24.671Z,1004.89
2023-01-05T05:57:24.679Z,1004.91
2023-01-05T05:58:24.672Z,1004.92
2023-01-05T05:59:24.682Z,1004.90
2023-01-05T06:00:24.686Z,1005.00
2023-01-05T06:01:24.730Z,1005.05
2023-01-05T06:02:24.748Z,1004.99
2023-01-05T06:03:24.770Z,1004.99
2023-01-05T06:04:24.706Z,1004.95
2023-01-05T06:05:24.701Z,1005.02
2023-01-05T06:06:24.726Z,1004.98
2023-01-05T06:07:24.720Z,1004.97
2023-01-05T06:08:24.743Z,1005.01
2023-01-05T06:09:24.744Z,1004.95
2023-01-05T06:10:24.734Z,1005.05
2023-01-05T06:11:24.744Z,1005.01
2023-01-05T06:12:24.751Z,1005.02
2023-01-05T06:13:24.750Z,1005.05
2023-01-05T06:14:24.744Z,1005.12
2023-01-05T06:15:24.765Z,1005.11
2023-01-05T06:16:24.805Z,1005.03
2023-01-05T06:17:24.768Z,1005.17
2023-01-05T06:18:24.772Z,1005.03
2023-01-05T06:19:24.858Z,1005.20
2023-01-05T06:20:24.766Z,1005.04
2023-01-05T06:21:24.781Z,1005.17
2023-01-05T06:22:24.779Z,1005.19
2023-01-05T06:23:24.782Z,1005.16
2023-01-05T06:24:24.799Z,1005.15
2023-01-05T06:25:24.802Z,1004.99
2023-01-05T06:26:24.801Z,1005.16
2023-01-05T06:27:24.813Z,1005.13
2023-01-05T06:28:24.816Z,1005.10
2023-01-05T06:29:24.810Z,1005.22
2023-01-05T06:30:24.818Z,1005.12
2023-01-05T06:31:24.909Z,1005.22
2023-01-05T06:32:24.825Z,1005.18
2023-01-05T06:33:24.835Z,1005.16
2023-01-05T06:34:24.839Z,1005.24
2023-01-05T06:35:24.865Z,1005.19
2023-01-05T06:36:24.856Z,1005.15
2023-01-05T06:37:24.849Z,1005.22
2023-01-05T06:38:24.857Z,1005.32
2023-01-05T06:39:24.860Z,1005.25
2023-01-05T06:40:24.866Z,1005.30
2023-01-05T06:41:24.870Z,1005.37
2023-01-05T06:42:24.873Z,1005.31
2023-01-05T06:43:24.876Z,1005.46
2023-01-05T06:44:24.888Z,1005.35
2023-01-05T06:45:25.015Z,1005.41
2023-01-05T06:46:24.951Z,1005.46
2023-01-05T06:47:24.894Z,1005.42
2023-01-05T06:48:24.904Z,1005.37
2023-01-05T06:49:24.915Z,1005.43
2023-01-05T06:50:24.904Z,1005.41
2023-01-05T06:51:24.947Z,1005.60
2023-01-05T06:52:24.915Z,1005.53
2023-01-05T06:53:24.914Z,1005.46
2023-01-05T06:54:24.916Z,1005.39
2023-01-05T06:55:24.931Z,1005.49
2023-01-05T06:56:24.926Z,1005.55
2023-01-05T06:57:24.936Z,1005.56
2023-01-05T06:58:24.938Z,1005.55
2023-01-05T06:59:24.940Z,1005.52
2023-01-05T07:00:24.951Z,1005.46
2023-01-05T07:01:25.140Z,1005.60
2023-01-05T07:02:24.957Z,1005.65
2023-01-05T07:03:24.964Z,1005.68
2023-01-05T07:04:25.021Z,1005.52
2023-01-05T07:05:24.972Z,1005.62
2023-01-05T07:06:24.976Z,1005.71
2023-01-05T07:07:25.002Z,1005.72
2023-01-05T07:08:24.979Z,1005.78
2023-01-05T07:09:24.983Z,1005.68
2023-01-05T07:10:24.984Z,1005.72
2023-01-05T07:11:25.000Z,1005.73
2023-01-05T07:12:25.000Z,1005.73
2023-01-05T07:13:25.006Z,1005.67
2023-01-05T07:14:25.011Z,1005.78
2023-01-05T07:15:25.009Z,1005.71
2023-01-05T07:16:25.101Z,1005.71
2023-01-05T07:17:25.022Z,1005.81
2023-01-05T07:18:25.026Z,1005.79
2023-01-05T07:19:25.025Z,1005.68
2023-01-05T07:20:25.027Z,1005.78
2023-01-05T07:21:25.061Z,1005.76
2023-01-05T07:22:25.043Z,1005.83
2023-01-05T07:23:25.069Z,1005.74
2023-01-05T07:24:25.056Z,1005.72
2023-01-05T07:25:25.060Z,1005.76
2023-01-05T07:26:25.065Z,1005.81
2023-01-05T07:27:25.057Z,1005.83
2023-01-05T07:28:25.063Z,1005.73
2023-01-05T07:29:25.087Z,1005.87
2023-01-05T07:30:25.072Z,1005.89
2023-01-05T07:31:25.150Z,1005.87
2023-01-05T07:32:25.084Z,1005.85
2023-01-05T07:33:25.093Z,1005.93
2023-01-05T07:34:25.086Z,1005.96
2023-01-05T07:35:25.092Z,1005.88
2023-01-05T07:36:25.095Z,1005.98
2023-01-05T07:37:25.478Z,1005.90
2023-01-05T07:38:25.102Z,1005.93
2023-01-05T07:39:25.124Z,1006.01
2023-01-05T07:40:25.128Z,1006.07
2023-01-05T07:41:25.120Z,1005.98
2023-01-05T07:42:25.131Z,1006.02
2023-01-05T07:43:25.127Z,1006.09
2023-01-05T07:44:25.140Z,1006.01
2023-01-05T07:45:25.215Z,1005.99
2023-01-05T07:46:25.230Z,1005.98
2023-01-05T07:47:25.157Z,1006.00
2023-01-05T07:48:25.156Z,1005.97
2023-01-05T07:49:25.155Z,1005.96
2023-01-05T07:50:25.161Z,1006.01
2023-01-05T07:51:25.159Z,1006.00
2023-01-05T07:52:25.171Z,1006.03
2023-01-05T07:53:25.175Z,1006.04
2023-01-05T07:54:25.177Z,1006.13
2023-01-05T07:55:25.262Z,1006.18
2023-01-05T07:56:25.188Z,1006.14
2023-01-05T07:57:25.195Z,1006.16
2023-01-05T07:58:25.195Z,1006.16
2023-01-05T07:59:25.214Z,1006.19
2023-01-05T08:00:25.196Z,1006.17
2023-01-05T08:01:25.324Z,1006.15
2023-01-05T08:02:27.620Z,1006.17
2023-01-05T08:03:25.224Z,1006.17
2023-01-05T08:04:25.279Z,1006.10
2023-01-05T08:05:25.231Z,1006.17
2023-01-05T08:06:25.237Z,1006.25
2023-01-05T08:07:25.233Z,1006.25
2023-01-05T08:08:25.242Z,1006.29
2023-01-05T08:09:25.292Z,1006.30
2023-01-05T08:10:25.300Z,1006.29
2023-01-05T08:11:25.271Z,1006.33
2023-01-05T08:12:25.259Z,1006.44
2023-01-05T08:13:25.250Z,1006.30
2023-01-05T08:14:26.678Z,1006.35
2023-01-05T08:15:25.283Z,1006.39
2023-01-05T08:16:25.362Z,1006.42
2023-01-05T08:17:25.284Z,1006.50
2023-01-05T08:18:25.279Z,1006.47
2023-01-05T08:19:25.303Z,1006.42
2023-01-05T08:20:25.372Z,1006.46
2023-01-05T08:21:25.286Z,1006.48
2023-01-05T08:22:25.291Z,1006.42
2023-01-05T08:23:26.795Z,1006.51
2023-01-05T08:24:25.300Z,1006.53
2023-01-05T08:25:25.310Z,1006.49
2023-01-05T08:26:25.317Z,1006.46
2023-01-05T08:27:25.344Z,1006.50
2023-01-05T08:28:29.871Z,1006.50
2023-01-05T08:29:25.327Z,1006.54
2023-01-05T08:30:25.324Z,1006.55
2023-01-05T08:31:25.410Z,1006.58
2023-01-05T08:32:25.336Z,1006.62
2023-01-05T08:33:25.347Z,1006.65
2023-01-05T08:34:30.033Z,1006.66
2023-01-05T08:35:25.354Z,1006.75
2023-01-05T08:36:25.351Z,1006.60
2023-01-05T08:37:25.382Z,1006.83
2023-01-05T08:38:25.368Z,1006.74
2023-01-05T08:39:25.368Z,1006.69
2023-01-05T08:40:25.370Z,1006.70
2023-01-05T08:41:25.381Z,1006.75
2023-01-05T08:42:25.377Z,1006.77
2023-01-05T08:43:25.403Z,1006.82
2023-01-05T08:44:25.392Z,1006.93
2023-01-05T08:45:25.399Z,1006.87
2023-01-05T08:46:25.421Z,1006.85
2023-01-05T08:47:28.523Z,1006.85
2023-01-05T08:48:25.420Z,1006.85
2023-01-05T08:49:25.409Z,1006.86
2023-01-05T08:50:25.416Z,1006.88
2023-01-05T08:51:25.428Z,1006.93
2023-01-05T08:52:25.423Z,1006.90
2023-01-05T08:53:25.433Z,1006.91
2023-01-05T08:54:25.445Z,1006.92
2023-01-05T08:55:25.435Z,1006.92
2023-01-05T08:56:25.449Z,1006.98
2023-01-05T08:57:25.450Z,1007.02
2023-01-05T08:58:25.453Z,1006.96
2023-01-05T08:59:25.486Z,1006.96
2023-01-05T09:00:25.474Z,1007.04
2023-01-05T09:01:25.578Z,1007.03
2023-01-05T09:02:26.420Z,1007.07
2023-01-05T09:03:25.544Z,1007.13
2023-01-05T09:04:25.493Z,1007.15
2023-01-05T09:05:25.495Z,1007.18
2023-01-05T09:06:25.506Z,1007.23
2023-01-05T09:07:25.492Z,1007.14
2023-01-05T09:08:25.499Z,1007.24
2023-01-05T09:09:25.510Z,1007.25
2023-01-05T09:10:25.521Z,1007.28
2023-01-05T09:11:25.517Z,1007.33
2023-01-05T09:12:29.255Z,1007.32
2023-01-05T09:13:25.535Z,1007.38
2023-01-05T09:14:25.532Z,1007.40
2023-01-05T09:15:25.567Z,1007.44
2023-01-05T09:16:42.894Z,1007.46
2023-01-05T09:17:25.641Z,1007.41
2023-01-05T09:18:25.541Z,1007.42
2023-01-05T09:19:25.552Z,1007.41
2023-01-05T09:20:25.555Z,1007.54
2023-01-05T09:21:25.568Z,1007.48
2023-01-05T09:22:25.589Z,1007.56
2023-01-05T09:23:25.570Z,1007.65
2023-01-05T09:24:25.612Z,1007.53
2023-01-05T09:25:25.574Z,1007.43
2023-01-05T09:27:08.192Z,1007.60
2023-01-05T09:28:08.193Z,1007.49
2023-01-05T09:29:08.195Z,1007.62
2023-01-05T09:30:08.194Z,1007.53
2023-01-05T09:31:08.273Z,1007.58
2023-01-05T09:32:08.205Z,1007.71
2023-01-05T09:33:08.224Z,1007.65
2023-01-05T09:34:08.219Z,1007.75
2023-01-05T09:35:08.218Z,1007.70
2023-01-05T09:36:08.223Z,1007.77
2023-01-05T09:37:08.251Z,1007.84
2023-01-05T09:38:08.250Z,1007.85
2023-01-05T09:39:08.246Z,1007.83
2023-01-05T09:40:08.254Z,1007.90
2023-01-05T09:41:08.244Z,1007.86
2023-01-05T09:42:08.252Z,1007.79
2023-01-05T09:43:08.255Z,1007.88
2023-01-05T09:44:08.261Z,1007.93
2023-01-05T09:45:08.284Z,1007.94
2023-01-05T09:46:08.282Z,1007.98
2023-01-05T09:47:08.397Z,1008.03
2023-01-05T09:48:08.288Z,1008.00
2023-01-05T09:49:08.287Z,1007.98
2023-01-05T09:50:08.288Z,1008.05
2023-01-05T09:51:08.297Z,1008.10
2023-01-05T09:52:08.310Z,1008.14
2023-01-05T09:53:08.303Z,1008.10
2023-01-05T09:54:08.317Z,1008.19
2023-01-05T09:55:08.321Z,1008.24
2023-01-05T09:56:08.327Z,1008.14
2023-01-05T09:57:09.899Z,1008.16
2023-01-05T09:58:08.337Z,1008.15
2023-01-05T09:59:08.345Z,1008.20
2023-01-05T10:00:08.336Z,1008.20
2023-01-05T10:01:08.392Z,1008.26
2023-01-05T10:02:08.353Z,1008.31
2023-01-05T10:03:08.542Z,1008.42
2023-01-05T10:04:08.416Z,1008.32
2023-01-05T10:05:08.608Z,1008.41
2023-01-05T10:06:08.377Z,1008.35
2023-01-05T10:07:08.385Z,1008.49
2023-01-05T10:08:08.380Z,1008.43
2023-01-05T10:09:08.390Z,1008.44
2023-01-05T10:10:08.434Z,1008.50
2023-01-05T10:11:08.398Z,1008.47
2023-01-05T10:12:08.409Z,1008.47
2023-01-05T10:13:08.446Z,1008.47
2023-01-05T10:14:08.412Z,1008.52
2023-01-05T10:15:08.429Z,1008.55
2023-01-05T10:16:08.491Z,1008.59
2023-01-05T10:17:39.876Z,1008.51
2023-01-05T10:18:08.430Z,1008.58
2023-01-05T10:19:08.550Z,1008.57
2023-01-05T10:20:08.441Z,1008.57
2023-01-05T10:21:08.446Z,1008.59
2023-01-05T10:22:08.443Z,1008.65
2023-01-05T10:23:08.455Z,1008.59
2023-01-05T10:24:08.452Z,1008.71
2023-01-05T10:25:08.471Z,1008.69
2023-01-05T10:26:08.459Z,1008.79
2023-01-05T10:27:25.491Z,1008.79
2023-01-05T10:28:08.471Z,1008.78
2023-01-05T10:29:08.484Z,1008.80
2023-01-05T10:30:08.489Z,1008.83
2023-01-05T10:31:08.552Z,1008.85
2023-01-05T10:32:08.497Z,1008.89
2023-01-05T10:33:25.951Z,1008.89
2023-01-05T10:34:14.372Z,1008.94
2023-01-05T10:35:12.123Z,1008.95
2023-01-05T10:36:12.307Z,1008.88
2023-01-05T10:37:10.345Z,1008.90
2023-01-05T10:38:08.520Z,1009.00
2023-01-05T10:39:08.527Z,1008.99
2023-01-05T10:40:08.537Z,1008.98
2023-01-05T10:41:08.536Z,1008.99
2023-01-05T10:42:08.747Z,1009.01
2023-01-05T10:43:08.755Z,1009.02
2023-01-05T10:44:08.548Z,1009.03
2023-01-05T10:45:08.581Z,1009.03
2023-01-05T10:47:08.633Z,1009.03
2023-01-05T10:48:08.576Z,1009.01
2023-01-05T10:49:08.584Z,1008.96
2023-01-05T10:50:08.587Z,1009.02
2023-01-05T10:51:08.718Z,1008.97
2023-01-05T10:52:08.591Z,1009.04
2023-01-05T10:53:08.596Z,1009.04
2023-01-05T10:54:11.229Z,1009.05
2023-01-05T10:55:08.605Z,1009.10
2023-01-05T10:56:08.612Z,1009.08
2023-01-05T10:57:08.615Z,1008.98
2023-01-05T10:58:08.629Z,1009.01
2023-01-05T10:59:08.636Z,1009.08
2023-01-05T11:00:08.633Z,1009.03
2023-01-05T11:01:08.731Z,1009.11
2023-01-05T11:02:08.785Z,1009.19
2023-01-05T11:03:08.654Z,1009.16
2023-01-05T11:04:36.450Z,1009.19
2023-01-05T11:05:08.737Z,1009.21
2023-01-05T11:06:08.668Z,1009.21
2023-01-05T11:07:08.795Z,1009.24
2023-01-05T11:08:08.671Z,1009.19
2023-01-05T11:09:08.685Z,1009.25
2023-01-05T11:10:08.689Z,1009.31
2023-01-05T11:11:08.688Z,1009.27
2023-01-05T11:12:08.703Z,1009.24
2023-01-05T11:13:08.700Z,1009.39
2023-01-05T11:14:08.703Z,1009.30
2023-01-05T11:15:08.710Z,1009.37
2023-01-05T11:16:08.820Z,1009.36
2023-01-05T11:17:08.731Z,1009.39
2023-01-05T11:18:08.723Z,1009.40
2023-01-05T11:19:08.737Z,1009.38
2023-01-05T11:20:08.742Z,1009.40
2023-01-05T11:21:08.748Z,1009.46
2023-01-05T11:22:08.752Z,1009.40
2023-01-05T11:23:08.872Z,1009.43
2023-01-05T11:24:08.762Z,1009.50
2023-01-05T11:25:08.769Z,1009.50
2023-01-05T11:26:08.772Z,1009.51
2023-01-05T11:27:08.772Z,1009.44
2023-01-05T11:28:08.790Z,1009.47
2023-01-05T11:29:08.786Z,1009.50
2023-01-05T11:30:08.788Z,1009.49
2023-01-05T11:31:08.827Z,1009.53
2023-01-05T11:32:08.800Z,1009.54
2023-01-05T11:33:12.638Z,1009.56
2023-01-05T11:34:08.812Z,1009.52
2023-01-05T11:35:08.825Z,1009.55
2023-01-05T11:36:08.828Z,1009.60
2023-01-05T11:37:08.900Z,1009.63
2023-01-05T11:38:08.840Z,1009.66
2023-01-05T11:39:09.063Z,1009.66
2023-01-05T11:59:47.919Z,1009.72
2023-01-05T12:00:47.876Z,1009.65
2023-01-05T12:01:47.865Z,1009.69
2023-01-05T12:02:47.851Z,1009.73
2023-01-05T12:03:47.834Z,1009.69
2023-01-05T12:04:47.818Z,1009.69
2023-01-05T12:05:47.816Z,1009.72
2023-01-05T12:06:47.834Z,1009.78
2023-01-05T12:07:47.830Z,1009.76
2023-01-05T12:08:47.916Z,1009.78
2023-01-05T12:09:47.839Z,1009.81
2023-01-05T12:10:47.850Z,1009.78
2023-01-05T12:11:47.866Z,1009.84
2023-01-05T12:12:47.862Z,1009.79
2023-01-05T12:13:47.869Z,1009.82
2023-01-05T12:14:47.876Z,1009.83
2023-01-05T12:15:48.061Z,1009.88
2023-01-05T12:16:47.929Z,1009.88
2023-01-05T12:17:47.902Z,1009.89
2023-01-05T12:18:47.893Z,1009.94
2023-01-05T12:19:47.895Z,1009.88
2023-01-05T12:20:47.910Z,1009.88
2023-01-05T12:21:47.909Z,1009.91
2023-01-05T12:22:47.920Z,1009.95
2023-01-05T12:23:47.917Z,1009.92
2023-01-05T12:24:47.933Z,1009.92
2023-01-05T12:25:47.929Z,1009.95
2023-01-05T12:26:47.935Z,1009.91